Time;durP1;ratioP1;P1;durP2;ratioP2;P2;SDS_P1;SDS_P2;PMS_P1;PMS_P2;Temp;Humidity;BMP_temperature;BMP_pressure;BME280_temperature;BME280_humidity;BME280_pressure;Samples;Min_cycle;Max_cycle;Signal;HPM_P1;HPM_P2
2024/01/13 00:01:40;;;;;;;13.15;5.22;;;3.70;99.90;;;;;;4993561;28;20125;-84
2024/01/13 00:04:06;;;;;;;13.68;5.10;;;3.70;99.90;;;;;;4996216;28;20413;-85
2024/01/13 00:06:32;;;;;;;13.63;5.00;;;3.70;99.90;;;;;;4988317;28;20034;-85
2024/01/13 00:08:58;;;;;;;16.27;4.97;;;3.70;99.90;;;;;;4986082;28;20232;-84
2024/01/13 00:11:23;;;;;;;17.08;5.55;;;3.70;99.90;;;;;;4998817;28;20045;-83
2024/01/13 00:13:49;;;;;;;13.15;5.40;;;3.70;99.90;;;;;;5012999;28;20401;-84
2024/01/13 00:16:15;;;;;;;15.10;5.07;;;3.70;99.90;;;;;;5010115;28;20041;-85
2024/01/13 00:18:41;;;;;;;18.05;5.32;;;3.70;99.90;;;;;;4996140;28;20042;-84
2024/01/13 00:21:07;;;;;;;14.95;5.40;;;3.60;99.90;;;;;;4979176;28;20053;-84
2024/01/13 00:23:33;;;;;;;12.85;5.18;;;3.70;99.90;;;;;;4983379;28;20044;-84
2024/01/13 00:25:59;;;;;;;12.82;4.70;;;3.60;99.90;;;;;;4998719;28;20046;-84
2024/01/13 00:28:25;;;;;;;12.07;4.70;;;3.70;99.90;;;;;;4983728;28;20516;-85
2024/01/13 00:30:51;;;;;;;14.10;4.90;;;3.70;99.90;;;;;;4982229;28;20037;-85
2024/01/13 00:33:17;;;;;;;13.45;5.20;;;3.70;99.90;;;;;;4995500;28;20473;-84
2024/01/13 00:35:42;;;;;;;15.90;4.75;;;3.70;99.90;;;;;;4977573;28;20045;-85
2024/01/13 00:38:08;;;;;;;10.60;4.57;;;3.80;99.90;;;;;;5000669;28;20045;-85
2024/01/13 00:40:34;;;;;;;13.50;4.80;;;3.80;99.90;;;;;;4997962;28;20456;-84
2024/01/13 00:43:00;;;;;;;12.30;5.28;;;3.80;99.90;;;;;;4982416;28;20145;-84
2024/01/13 00:45:26;;;;;;;13.77;5.30;;;3.80;99.90;;;;;;4979875;28;20050;-85
2024/01/13 00:47:51;;;;;;;11.00;4.40;;;3.80;99.90;;;;;;4995208;28;20050;-84
2024/01/13 00:50:17;;;;;;;14.55;5.25;;;3.80;99.90;;;;;;4984572;28;20050;-85
2024/01/13 00:52:43;;;;;;;14.18;5.13;;;3.80;99.90;;;;;;4982501;28;20041;-84
2024/01/13 00:55:09;;;;;;;11.10;5.20;;;3.80;99.90;;;;;;5002426;28;20147;-85
2024/01/13 00:57:34;;;;;;;11.90;4.95;;;3.80;99.90;;;;;;4985752;28;20069;-85
2024/01/13 01:00:00;;;;;;;11.10;5.00;;;3.80;99.90;;;;;;4994874;28;20550;-85
2024/01/13 01:02:26;;;;;;;15.32;4.72;;;3.80;99.90;;;;;;4982076;28;20095;-84
2024/01/13 01:04:52;;;;;;;13.55;5.45;;;3.70;99.90;;;;;;4990970;28;20049;-85
2024/01/13 01:07:18;;;;;;;13.48;5.32;;;3.70;99.90;;;;;;4998714;28;20486;-85
2024/01/13 01:09:44;;;;;;;15.32;5.28;;;3.70;99.90;;;;;;4995428;28;20074;-84
2024/01/13 01:12:10;;;;;;;14.80;5.53;;;3.70;99.90;;;;;;4995215;28;21019;-85
2024/01/13 01:14:38;;;;;;;12.82;5.35;;;3.70;99.90;;;;;;4999688;28;20125;-84
2024/01/13 01:17:04;;;;;;;16.02;5.43;;;3.60;99.90;;;;;;4995965;28;20512;-85
2024/01/13 01:19:30;;;;;;;13.00;5.60;;;3.60;99.90;;;;;;4980767;28;20049;-83
2024/01/13 01:21:56;;;;;;;17.80;5.60;;;3.60;99.90;;;;;;5010281;28;20041;-85
2024/01/13 01:24:21;;;;;;;12.13;5.50;;;3.70;99.90;;;;;;4994806;28;20053;-84
2024/01/13 01:26:47;;;;;;;14.30;6.22;;;3.80;99.90;;;;;;4997020;28;20056;-85
2024/01/13 01:29:13;;;;;;;13.32;5.78;;;3.80;99.90;;;;;;4980784;28;20402;-83
2024/01/13 01:31:39;;;;;;;15.13;5.38;;;3.70;99.90;;;;;;5002500;28;20041;-85
2024/01/13 01:34:04;;;;;;;13.65;6.47;;;3.70;99.90;;;;;;5005344;28;20050;-84
2024/01/13 01:36:30;;;;;;;10.35;5.28;;;3.80;99.90;;;;;;5012623;28;20124;-85
2024/01/13 01:38:56;;;;;;;14.48;5.25;;;3.70;99.90;;;;;;4998145;28;20039;-84
2024/01/13 01:41:24;;;;;;;11.02;4.72;;;3.80;99.90;;;;;;4988883;28;20046;-85
2024/01/13 01:43:50;;;;;;;11.52;4.72;;;3.80;99.90;;;;;;4982575;28;20038;-84
2024/01/13 01:46:19;;;;;;;10.82;5.00;;;3.80;99.90;;;;;;4999882;28;20068;-84
2024/01/13 01:48:46;;;;;;;9.82;4.63;;;3.80;99.90;;;;;;4977016;28;20061;-84
2024/01/13 01:51:16;;;;;;;8.90;4.38;;;3.70;99.90;;;;;;4999962;28;20497;-84
2024/01/13 01:53:44;;;;;;;7.80;4.47;;;3.70;99.90;;;;;;4998389;28;20041;-84
2024/01/13 01:56:16;;;;;;;9.32;4.28;;;3.70;99.90;;;;;;4999594;28;20053;-84
2024/01/13 01:58:47;;;;;;;7.78;4.00;;;3.80;99.90;;;;;;5001776;28;20053;-84
2024/01/13 02:01:14;;;;;;;10.77;4.13;;;3.70;99.90;;;;;;4988869;28;20073;-85
2024/01/13 02:03:40;;;;;;;6.68;4.20;;;3.80;99.90;;;;;;4985013;28;20085;-85
2024/01/13 02:06:06;;;;;;;11.30;4.35;;;3.70;99.90;;;;;;5002430;28;20120;-85
2024/01/13 02:08:33;;;;;;;10.68;4.40;;;3.70;99.90;;;;;;4999872;28;20073;-84
2024/01/13 02:10:59;;;;;;;9.13;4.15;;;3.80;99.90;;;;;;4982800;28;20551;-84
2024/01/13 02:13:25;;;;;;;7.15;4.22;;;3.80;99.90;;;;;;5004559;28;20042;-85
2024/01/13 02:15:50;;;;;;;9.95;4.38;;;3.70;99.90;;;;;;5026934;28;20082;-84
2024/01/13 02:18:19;;;;;;;11.77;4.30;;;3.80;99.90;;;;;;5033121;28;20042;-85
2024/01/13 02:20:45;;;;;;;9.70;4.32;;;3.70;99.90;;;;;;5006533;28;20045;-84
2024/01/13 02:23:10;;;;;;;13.95;5.03;;;3.80;99.90;;;;;;4984597;28;20416;-84
2024/01/13 02:25:36;;;;;;;10.50;4.20;;;3.70;99.90;;;;;;4985932;28;20042;-85
2024/01/13 02:28:02;;;;;;;8.15;4.38;;;3.70;99.90;;;;;;4982240;28;20095;-84
2024/01/13 02:30:28;;;;;;;9.45;4.43;;;3.80;99.90;;;;;;4972467;28;20494;-85
2024/01/13 02:32:54;;;;;;;8.50;4.05;;;3.80;99.90;;;;;;5020564;28;20048;-84
2024/01/13 02:35:20;;;;;;;10.05;4.15;;;3.70;99.90;;;;;;4998790;28;20053;-84
2024/01/13 02:37:45;;;;;;;16.88;4.53;;;3.80;99.90;;;;;;4999567;28;20074;-85
2024/01/13 02:40:11;;;;;;;11.98;4.60;;;3.70;99.90;;;;;;4983958;28;20054;-84
2024/01/13 02:42:39;;;;;;;10.02;5.10;;;3.70;99.90;;;;;;4984316;28;20060;-84
2024/01/13 02:45:06;;;;;;;8.68;4.28;;;3.70;99.90;;;;;;5011036;28;20045;-81
2024/01/13 02:47:47;;;;;;;8.05;4.45;;;3.70;99.90;;;;;;5020121;28;20100;-84
2024/01/13 02:50:13;;;;;;;9.43;3.70;;;3.70;99.90;;;;;;4982598;28;20488;-84
2024/01/13 02:52:40;;;;;;;8.07;4.43;;;3.60;99.90;;;;;;4997210;28;20042;-85
2024/01/13 02:55:08;;;;;;;10.98;3.88;;;3.60;99.90;;;;;;5028787;28;20037;-84
2024/01/13 02:57:34;;;;;;;8.90;4.13;;;3.70;99.90;;;;;;4983242;28;20047;-85
2024/01/13 03:00:04;;;;;;;13.07;4.30;;;3.60;99.90;;;;;;4995095;28;20453;-84
2024/01/13 03:02:30;;;;;;;9.63;3.83;;;3.60;99.90;;;;;;4991496;28;20125;-84
2024/01/13 03:04:56;;;;;;;12.38;3.80;;;3.60;99.90;;;;;;5014732;28;20133;-85
2024/01/13 03:07:21;;;;;;;11.05;3.88;;;3.70;99.90;;;;;;5026190;28;20069;-83
2024/01/13 03:09:47;;;;;;;9.40;3.83;;;3.70;99.90;;;;;;5012738;28;20054;-84
2024/01/13 03:12:13;;;;;;;9.55;3.65;;;3.70;99.90;;;;;;4984628;28;20053;-84
2024/01/13 03:14:42;;;;;;;8.65;3.72;;;3.80;99.90;;;;;;4998639;28;20500;-85
2024/01/13 03:17:08;;;;;;;8.50;3.97;;;3.70;99.90;;;;;;5034465;28;20138;-84
2024/01/13 03:19:33;;;;;;;11.88;4.05;;;3.70;99.90;;;;;;4998634;28;20044;-84
2024/01/13 03:21:59;;;;;;;9.82;3.88;;;3.70;99.90;;;;;;4990753;28;20049;-84
2024/01/13 03:24:28;;;;;;;8.20;3.63;;;3.70;99.90;;;;;;4980776;28;20449;-84
2024/01/13 03:26:54;;;;;;;7.25;3.50;;;3.60;99.90;;;;;;4984958;28;20396;-84
2024/01/13 03:29:20;;;;;;;10.07;3.70;;;3.70;99.90;;;;;;4998084;28;20489;-85
2024/01/13 03:31:45;;;;;;;7.18;3.70;;;3.70;99.90;;;;;;4994212;28;20042;-85
2024/01/13 03:34:11;;;;;;;8.80;3.72;;;3.70;99.90;;;;;;4992503;28;20042;-84
2024/01/13 03:36:38;;;;;;;10.68;3.92;;;3.70;99.90;;;;;;4992526;28;20687;-85
2024/01/13 03:39:03;;;;;;;13.25;4.45;;;3.70;99.90;;;;;;4998663;28;20045;-85
2024/01/13 03:41:29;;;;;;;11.75;3.88;;;3.70;99.90;;;;;;4997502;28;20144;-85
2024/01/13 03:43:57;;;;;;;10.93;4.70;;;3.70;99.90;;;;;;4998627;28;20449;-84
2024/01/13 03:46:24;;;;;;;12.48;4.40;;;3.60;99.90;;;;;;4995535;28;20057;-84
2024/01/13 03:48:49;;;;;;;10.93;4.40;;;3.60;99.90;;;;;;5005157;28;20500;-85
2024/01/13 03:51:18;;;;;;;8.00;4.00;;;3.60;99.90;;;;;;4983051;28;20053;-84
2024/01/13 03:53:45;;;;;;;9.18;4.00;;;3.70;99.90;;;;;;4986881;28;20486;-84
2024/01/13 03:56:10;;;;;;;12.07;4.30;;;3.60;99.90;;;;;;4980477;28;20046;-85
2024/01/13 03:58:36;;;;;;;10.10;4.30;;;3.60;99.90;;;;;;4984245;28;20472;-85
2024/01/13 04:01:03;;;;;;;9.88;4.22;;;3.60;99.90;;;;;;4981526;28;20544;-84
2024/01/13 04:03:29;;;;;;;11.40;4.45;;;3.70;99.90;;;;;;4982596;28;20038;-85
2024/01/13 04:05:56;;;;;;;10.52;4.03;;;3.70;99.90;;;;;;5027345;28;20043;-84
2024/01/13 04:08:22;;;;;;;9.38;4.57;;;3.60;99.90;;;;;;4983699;28;20038;-85
2024/01/13 04:10:48;;;;;;;9.57;4.40;;;3.70;99.90;;;;;;4994889;28;20409;-84
2024/01/13 04:13:14;;;;;;;11.73;4.78;;;3.70;99.90;;;;;;4980601;28;20060;-85
2024/01/13 04:15:40;;;;;;;12.45;4.60;;;3.70;99.90;;;;;;5031404;28;20100;-85
2024/01/13 04:18:06;;;;;;;13.60;4.63;;;3.70;99.90;;;;;;5014984;28;20052;-84
2024/01/13 04:20:32;;;;;;;7.78;3.92;;;3.80;99.90;;;;;;5000614;28;20144;-85
2024/01/13 04:22:58;;;;;;;7.55;4.15;;;3.80;99.90;;;;;;5024588;28;20764;-84
2024/01/13 04:25:24;;;;;;;9.90;3.70;;;3.80;99.90;;;;;;4996595;28;20041;-85
2024/01/13 04:27:54;;;;;;;9.30;3.78;;;3.70;99.90;;;;;;4992755;28;20493;-85
2024/01/13 04:30:20;;;;;;;8.98;3.60;;;3.70;99.90;;;;;;5013281;28;20093;-85
2024/01/13 04:32:46;;;;;;;6.88;3.20;;;3.80;99.90;;;;;;4997787;28;20088;-85
2024/01/13 04:35:12;;;;;;;9.95;3.47;;;3.70;99.90;;;;;;4997098;28;20081;-85
2024/01/13 04:37:39;;;;;;;6.22;3.90;;;3.80;99.90;;;;;;4981423;28;20066;-85
2024/01/13 04:40:05;;;;;;;8.48;3.85;;;3.80;99.90;;;;;;4984422;28;20053;-84
2024/01/13 04:42:31;;;;;;;8.02;3.63;;;3.70;99.90;;;;;;4983014;28;21321;-85
2024/01/13 04:44:57;;;;;;;13.70;3.75;;;3.80;99.90;;;;;;4995306;28;20038;-83
2024/01/13 04:47:24;;;;;;;9.98;3.83;;;3.80;99.90;;;;;;5001027;28;20504;-85
2024/01/13 04:49:53;;;;;;;11.20;3.80;;;3.80;99.90;;;;;;5013892;28;20046;-84
2024/01/13 04:52:19;;;;;;;7.38;3.80;;;3.90;99.90;;;;;;4997689;28;20078;-85
2024/01/13 04:54:45;;;;;;;10.70;3.65;;;3.90;99.90;;;;;;4986490;28;20107;-84
2024/01/13 04:57:11;;;;;;;10.23;3.72;;;3.80;99.90;;;;;;4998523;28;20078;-84
2024/01/13 04:59:37;;;;;;;7.53;3.60;;;3.80;99.90;;;;;;4998150;28;20342;-85
2024/01/13 05:02:03;;;;;;;9.98;3.78;;;3.80;99.90;;;;;;5003841;28;20104;-85
2024/01/13 05:04:29;;;;;;;7.10;4.10;;;3.90;99.90;;;;;;4986334;28;20107;-85
2024/01/13 05:06:58;;;;;;;11.55;4.05;;;3.80;99.90;;;;;;4985817;28;20398;-83
2024/01/13 05:09:23;;;;;;;7.18;3.95;;;3.80;99.90;;;;;;5010499;28;20046;-85
2024/01/13 05:11:49;;;;;;;6.82;3.90;;;3.90;99.90;;;;;;4996993;28;20200;-85
2024/01/13 05:14:16;;;;;;;7.30;3.60;;;3.90;99.90;;;;;;5009932;28;20144;-84
2024/01/13 05:16:42;;;;;;;7.18;3.70;;;3.90;99.90;;;;;;4995110;28;20038;-85
2024/01/13 05:19:11;;;;;;;8.60;3.67;;;3.90;99.90;;;;;;4997532;28;20053;-84
2024/01/13 05:21:36;;;;;;;9.13;3.40;;;3.80;99.90;;;;;;4984138;28;20630;-85
2024/01/13 05:24:02;;;;;;;9.98;3.38;;;3.80;99.90;;;;;;4992715;28;20286;-84
2024/01/13 05:26:28;;;;;;;9.25;3.80;;;3.90;99.90;;;;;;4995745;28;20041;-84
2024/01/13 05:28:54;;;;;;;7.13;3.50;;;3.80;99.90;;;;;;4998533;28;20042;-84
2024/01/13 05:31:19;;;;;;;6.97;3.25;;;3.80;99.90;;;;;;4993233;28;20033;-84
2024/01/13 05:33:45;;;;;;;6.30;3.10;;;3.80;99.90;;;;;;5004157;28;20034;-84
2024/01/13 05:36:11;;;;;;;6.18;3.15;;;3.80;99.90;;;;;;4988771;28;20092;-84
2024/01/13 05:38:37;;;;;;;7.15;3.63;;;3.70;99.90;;;;;;4996293;28;20049;-84
2024/01/13 05:41:03;;;;;;;8.20;3.28;;;3.80;99.90;;;;;;4998286;28;20038;-83
2024/01/13 05:43:30;;;;;;;7.35;3.55;;;3.80;99.90;;;;;;4988714;28;20163;-85
2024/01/13 05:45:55;;;;;;;6.45;3.10;;;3.80;99.90;;;;;;4981373;28;20403;-83
2024/01/13 05:48:21;;;;;;;6.20;3.10;;;3.80;99.90;;;;;;4995644;28;20061;-85
2024/01/13 05:50:47;;;;;;;5.45;3.10;;;3.90;99.90;;;;;;5012255;28;20089;-85
2024/01/13 05:53:13;;;;;;;6.70;2.60;;;3.80;99.90;;;;;;4998672;28;20382;-85
2024/01/13 05:55:38;;;;;;;8.75;2.88;;;3.90;99.90;;;;;;4997118;28;20047;-85
2024/01/13 05:58:05;;;;;;;6.38;2.95;;;3.80;99.90;;;;;;4999075;28;20046;-84
2024/01/13 06:00:31;;;;;;;5.63;2.72;;;3.90;99.90;;;;;;4993481;28;20046;-85
2024/01/13 06:02:57;;;;;;;8.23;2.75;;;3.80;99.90;;;;;;4982905;28;20040;-85
2024/01/13 06:05:23;;;;;;;5.32;2.90;;;3.80;99.90;;;;;;5026450;28;20445;-85
2024/01/13 06:07:49;;;;;;;10.27;2.83;;;3.90;99.90;;;;;;4983173;28;20121;-83
2024/01/13 06:10:17;;;;;;;6.88;2.50;;;3.80;99.90;;;;;;4994815;28;20453;-85
2024/01/13 06:12:45;;;;;;;7.50;2.72;;;3.80;99.90;;;;;;4995533;28;20093;-84
2024/01/13 06:15:11;;;;;;;6.13;2.45;;;3.80;99.90;;;;;;4999641;28;20041;-84
2024/01/13 06:17:38;;;;;;;8.23;2.90;;;3.90;99.90;;;;;;5013490;28;20169;-85
2024/01/13 06:20:04;;;;;;;6.68;2.63;;;3.80;99.90;;;;;;4987694;28;20042;-84
2024/01/13 06:22:30;;;;;;;6.45;2.97;;;3.80;99.90;;;;;;4987977;28;20060;-85
2024/01/13 06:24:56;;;;;;;8.45;2.58;;;3.90;99.90;;;;;;4997579;28;20501;-85
2024/01/13 06:27:21;;;;;;;5.43;2.80;;;3.80;99.90;;;;;;4986084;28;20034;-85
2024/01/13 06:29:47;;;;;;;4.82;2.30;;;3.90;99.90;;;;;;5004347;28;20054;-84
2024/01/13 06:32:13;;;;;;;5.40;2.42;;;3.90;99.90;;;;;;4995279;28;20468;-85
2024/01/13 06:34:39;;;;;;;9.32;2.60;;;3.80;99.90;;;;;;4986384;28;20049;-84
2024/01/13 06:37:05;;;;;;;4.70;2.63;;;3.90;99.90;;;;;;5009762;28;20084;-85
2024/01/13 06:39:31;;;;;;;5.53;2.47;;;3.80;99.90;;;;;;5013577;28;20054;-84
2024/01/13 06:41:56;;;;;;;3.67;2.28;;;3.90;99.90;;;;;;5003785;28;20042;-85
2024/01/13 06:44:22;;;;;;;6.95;2.53;;;3.90;99.90;;;;;;5008152;28;20037;-85
2024/01/13 06:46:48;;;;;;;3.30;2.10;;;3.90;99.90;;;;;;4996187;28;20038;-85
2024/01/13 06:49:14;;;;;;;3.00;2.00;;;3.90;99.90;;;;;;4985359;28;20049;-85
2024/01/13 06:51:42;;;;;;;4.00;2.08;;;3.90;99.90;;;;;;4989323;28;20041;-84
2024/01/13 06:54:08;;;;;;;6.40;2.53;;;3.80;99.90;;;;;;4986875;28;20046;-85
2024/01/13 06:56:34;;;;;;;3.90;1.95;;;3.90;99.90;;;;;;4990332;28;20366;-85
2024/01/13 06:59:00;;;;;;;4.13;2.20;;;3.90;99.90;;;;;;5002083;28;20120;-85
2024/01/13 07:01:26;;;;;;;6.82;2.35;;;3.90;99.90;;;;;;5025380;28;20176;-83
2024/01/13 07:03:52;;;;;;;5.90;2.08;;;3.80;99.90;;;;;;5000957;28;20511;-85
2024/01/13 07:06:17;;;;;;;3.70;1.90;;;3.90;99.90;;;;;;4999551;28;20153;-82
2024/01/13 07:08:43;;;;;;;2.65;2.00;;;3.90;99.90;;;;;;4984711;28;20454;-84
2024/01/13 07:11:15;;;;;;;7.25;2.42;;;3.90;99.90;;;;;;5000951;28;20077;-85
2024/01/13 07:13:45;;;;;;;4.13;1.85;;;4.00;99.90;;;;;;5021953;28;20095;-85
2024/01/13 07:16:11;;;;;;;3.67;2.28;;;3.90;99.90;;;;;;4986995;28;20056;-85
2024/01/13 07:18:37;;;;;;;4.63;2.20;;;4.00;99.90;;;;;;5002104;28;20125;-84
2024/01/13 07:21:05;;;;;;;4.75;2.38;;;3.90;99.90;;;;;;4986817;28;20152;-85
2024/01/13 07:23:31;;;;;;;5.10;2.38;;;3.90;99.90;;;;;;4985067;28;20030;-84
2024/01/13 07:25:56;;;;;;;4.88;2.50;;;4.00;99.90;;;;;;5014941;28;20056;-85
2024/01/13 07:28:22;;;;;;;4.70;2.28;;;4.00;99.90;;;;;;4985947;28;20042;-84
2024/01/13 07:30:49;;;;;;;3.85;2.30;;;4.00;99.90;;;;;;4985233;28;20125;-85
2024/01/13 07:33:15;;;;;;;4.40;2.55;;;4.00;99.90;;;;;;4988206;28;20121;-83
2024/01/13 07:35:41;;;;;;;6.70;2.63;;;4.00;99.90;;;;;;4995917;28;20508;-84
2024/01/13 07:38:06;;;;;;;4.47;2.53;;;4.00;99.90;;;;;;4994612;28;20046;-85
2024/01/13 07:40:32;;;;;;;5.35;2.58;;;4.10;99.90;;;;;;5032707;28;20476;-84
2024/01/13 07:42:58;;;;;;;6.57;3.13;;;4.00;99.90;;;;;;5015915;28;20065;-85
2024/01/13 07:45:24;;;;;;;5.80;3.13;;;4.00;99.90;;;;;;5036008;28;20042;-83
2024/01/13 07:47:50;;;;;;;6.78;3.80;;;4.00;99.90;;;;;;4982520;28;20078;-84
2024/01/13 07:50:19;;;;;;;8.05;4.50;;;4.10;99.90;;;;;;4985622;28;20041;-85
2024/01/13 07:52:47;;;;;;;6.75;4.22;;;4.10;99.90;;;;;;4994197;28;20058;-85
2024/01/13 07:55:13;;;;;;;8.68;4.97;;;4.00;99.90;;;;;;5006192;28;20400;-85
2024/01/13 07:57:39;;;;;;;10.70;5.30;;;4.10;99.90;;;;;;5000432;28;20501;-85
2024/01/13 08:00:05;;;;;;;9.93;5.47;;;4.00;99.90;;;;;;5005134;28;20659;-85
2024/01/13 08:02:31;;;;;;;10.93;5.72;;;4.00;99.90;;;;;;5028130;28;20588;-84
2024/01/13 08:04:57;;;;;;;17.40;7.90;;;4.00;99.90;;;;;;4986795;28;20049;-85
2024/01/13 08:07:25;;;;;;;15.20;8.55;;;4.00;99.90;;;;;;4987264;28;20034;-84
2024/01/13 08:09:51;;;;;;;20.20;9.10;;;4.00;99.90;;;;;;4999910;28;20560;-85
2024/01/13 08:12:17;;;;;;;21.35;11.13;;;4.00;99.90;;;;;;5008656;28;20168;-83
2024/01/13 08:14:43;;;;;;;19.90;11.23;;;4.10;99.90;;;;;;4986832;28;20171;-85
2024/01/13 08:17:09;;;;;;;22.42;12.23;;;4.00;99.90;;;;;;4985757;28;20046;-83
2024/01/13 08:19:39;;;;;;;26.75;13.27;;;4.10;99.90;;;;;;4998843;28;20038;-85
2024/01/13 08:22:06;;;;;;;27.35;14.73;;;4.10;99.90;;;;;;5000896;28;20042;-82
2024/01/13 08:24:32;;;;;;;28.67;16.48;;;4.00;99.90;;;;;;5001695;28;20041;-85
2024/01/13 08:26:58;;;;;;;30.00;16.15;;;4.00;99.90;;;;;;4996044;28;20041;-84
2024/01/13 08:29:23;;;;;;;32.30;17.27;;;4.10;99.90;;;;;;5029117;28;20046;-85
2024/01/13 08:31:50;;;;;;;34.28;18.92;;;4.10;99.90;;;;;;4993661;28;20450;-85
2024/01/13 08:34:16;;;;;;;33.20;18.02;;;4.00;99.90;;;;;;5000956;28;20038;-84
2024/01/13 08:36:43;;;;;;;36.40;19.55;;;4.10;99.90;;;;;;5001911;28;20052;-86
2024/01/13 08:39:10;;;;;;;38.40;20.20;;;4.00;99.90;;;;;;4984744;28;20376;-85
2024/01/13 08:41:35;;;;;;;35.17;19.63;;;4.10;99.90;;;;;;5016764;28;20057;-85
2024/01/13 08:44:02;;;;;;;40.95;21.13;;;4.10;99.90;;;;;;4986269;28;20438;-84
2024/01/13 08:46:28;;;;;;;38.85;20.65;;;4.00;99.90;;;;;;4999713;28;20050;-84
2024/01/13 08:48:54;;;;;;;40.72;21.90;;;4.10;99.90;;;;;;5029655;28;20099;-85
2024/01/13 08:51:20;;;;;;;42.00;21.42;;;4.10;99.90;;;;;;5015651;28;20111;-85
2024/01/13 08:53:46;;;;;;;49.75;24.20;;;4.00;99.90;;;;;;4998252;28;20284;-85
2024/01/13 08:56:13;;;;;;;49.53;25.23;;;4.00;99.90;;;;;;4984440;28;20041;-85
2024/01/13 08:58:38;;;;;;;51.22;24.67;;;4.10;99.90;;;;;;4995965;28;20041;-85
2024/01/13 09:01:04;;;;;;;49.42;26.50;;;4.10;99.90;;;;;;5019120;28;20518;-85
2024/01/13 09:03:30;;;;;;;53.05;26.75;;;4.00;99.90;;;;;;4990024;28;20121;-85
2024/01/13 09:05:56;;;;;;;55.13;27.17;;;4.10;99.90;;;;;;4995566;28;20133;-84
2024/01/13 09:08:22;;;;;;;56.30;29.23;;;4.10;99.90;;;;;;4988118;28;20496;-84
2024/01/13 09:10:48;;;;;;;54.30;27.38;;;4.00;99.90;;;;;;4984101;28;20049;-84
2024/01/13 09:13:14;;;;;;;56.00;29.05;;;4.00;99.90;;;;;;4995810;28;20153;-85
2024/01/13 09:15:40;;;;;;;53.15;28.63;;;4.10;99.90;;;;;;4984366;28;20084;-85
2024/01/13 09:18:06;;;;;;;65.15;29.98;;;4.00;99.90;;;;;;4994613;28;20092;-85
2024/01/13 09:20:32;;;;;;;59.20;30.58;;;4.00;99.90;;;;;;4982656;28;20164;-85
2024/01/13 09:22:58;;;;;;;57.33;30.17;;;4.10;99.90;;;;;;4998662;28;20513;-85
2024/01/13 09:25:24;;;;;;;63.65;31.52;;;4.10;99.90;;;;;;4983902;28;20046;-84
2024/01/13 09:27:51;;;;;;;63.20;33.20;;;4.00;99.90;;;;;;4988430;28;20121;-84
2024/01/13 09:30:17;;;;;;;69.43;35.17;;;4.10;99.90;;;;;;5017455;28;20046;-85
2024/01/13 09:32:43;;;;;;;65.50;35.80;;;4.10;99.90;;;;;;4983778;28;20092;-84
2024/01/13 09:35:12;;;;;;;64.75;35.25;;;4.00;99.90;;;;;;5009270;28;20453;-85
2024/01/13 09:37:37;;;;;;;72.35;36.28;;;4.00;99.90;;;;;;5030088;28;20104;-84
2024/01/13 09:40:06;;;;;;;64.40;35.42;;;4.00;99.90;;;;;;4980168;28;20038;-85
2024/01/13 09:42:49;;;;;;;66.68;36.75;;;4.00;99.90;;;;;;5014358;28;20098;-84
2024/01/13 09:45:16;;;;;;;69.15;37.47;;;4.00;99.90;;;;;;4994806;28;20042;-85
2024/01/13 09:47:45;;;;;;;73.32;39.25;;;4.10;99.90;;;;;;4991460;28;20392;-85
2024/01/13 09:50:12;;;;;;;77.72;38.72;;;4.00;99.90;;;;;;4999186;28;20054;-85
2024/01/13 09:52:39;;;;;;;72.75;40.92;;;4.10;99.90;;;;;;4996838;28;20045;-85
2024/01/13 09:55:12;;;;;;;68.97;38.40;;;4.10;99.90;;;;;;4987437;28;20125;-85
2024/01/13 09:57:38;;;;;;;66.32;38.42;;;4.10;99.90;;;;;;5007120;28;20120;-84
2024/01/13 10:00:04;;;;;;;72.60;38.33;;;4.00;99.90;;;;;;5002696;28;20137;-84
2024/01/13 10:02:30;;;;;;;70.07;39.22;;;4.10;99.90;;;;;;4984620;28;20041;-84
2024/01/13 10:04:56;;;;;;;66.05;37.47;;;4.10;99.90;;;;;;4986478;28;20041;-84
2024/01/13 10:07:22;;;;;;;67.97;37.55;;;4.10;99.90;;;;;;4996059;28;20050;-84
2024/01/13 10:09:47;;;;;;;76.00;39.05;;;4.00;99.90;;;;;;5032591;28;20575;-85
2024/01/13 10:12:13;;;;;;;65.43;38.50;;;4.10;99.90;;;;;;5000919;28;20077;-84
2024/01/13 10:14:42;;;;;;;68.97;37.38;;;4.20;99.90;;;;;;5029507;28;20050;-85
2024/01/13 10:17:08;;;;;;;67.43;37.20;;;4.10;99.90;;;;;;5014113;28;20072;-84
2024/01/13 10:19:46;;;;;;;60.20;35.03;;;4.10;99.90;;;;;;5001070;28;20066;-85
2024/01/13 10:22:11;;;;;;;62.38;34.90;;;4.10;99.90;;;;;;4997814;28;20037;-84
2024/01/13 10:24:37;;;;;;;61.80;33.25;;;4.10;99.90;;;;;;5037710;28;20434;-85
2024/01/13 10:27:04;;;;;;;58.15;35.00;;;4.10;99.90;;;;;;5000212;28;20045;-84
2024/01/13 10:29:30;;;;;;;62.83;33.63;;;4.10;99.90;;;;;;5001238;28;20037;-85
2024/01/13 10:31:56;;;;;;;58.47;33.22;;;4.10;99.90;;;;;;4984615;28;20046;-85
2024/01/13 10:34:22;;;;;;;59.35;32.42;;;4.00;99.90;;;;;;4990135;28;20506;-84
2024/01/13 10:36:48;;;;;;;59.00;33.15;;;4.10;99.90;;;;;;4989414;28;20050;-85
2024/01/13 10:39:14;;;;;;;55.75;32.08;;;4.10;99.90;;;;;;4985728;28;20041;-85
2024/01/13 10:41:49;;;;;;;62.25;32.67;;;4.10;99.90;;;;;;4986770;28;20030;-84
2024/01/13 10:44:16;;;;;;;61.72;34.72;;;4.20;99.90;;;;;;4998406;28;20050;-84
2024/01/13 10:46:49;;;;;;;61.95;32.80;;;4.20;99.90;;;;;;4995332;28;20050;-84
2024/01/13 10:49:31;;;;;;;62.47;34.40;;;4.20;99.90;;;;;;4998593;28;20048;-81
2024/01/13 10:51:58;;;;;;;52.42;31.48;;;4.20;99.90;;;;;;5017570;28;20073;-84
2024/01/13 10:54:27;;;;;;;53.55;31.20;;;4.20;99.90;;;;;;5009345;28;20184;-83
2024/01/13 10:56:56;;;;;;;51.25;31.48;;;4.30;99.90;;;;;;4984623;28;20103;-84
2024/01/13 10:59:28;;;;;;;57.50;30.77;;;4.30;99.90;;;;;;5000472;28;20038;-84
2024/01/13 11:01:58;;;;;;;51.35;31.25;;;4.20;99.90;;;;;;5014199;28;20125;-85
2024/01/13 11:04:24;;;;;;;52.20;30.55;;;4.30;99.90;;;;;;5014648;28;20588;-84
2024/01/13 11:06:51;;;;;;;55.15;30.10;;;4.30;99.90;;;;;;4999060;28;20100;-85
2024/01/13 11:09:18;;;;;;;51.60;28.95;;;4.30;99.90;;;;;;4984833;28;20124;-84
2024/01/13 11:12:16;;;;;;;46.85;27.52;;;4.30;99.90;;;;;;5017083;28;20158;-84
2024/01/13 11:14:54;;;;;;;47.63;26.83;;;4.50;99.90;;;;;;4993168;28;20050;-85
2024/01/13 11:17:21;;;;;;;44.33;26.42;;;4.40;99.90;;;;;;4982939;28;20385;-85
2024/01/13 11:19:47;;;;;;;47.65;26.05;;;4.40;99.90;;;;;;5015982;28;20053;-84
2024/01/13 11:22:40;;;;;;;47.83;26.70;;;4.40;99.90;;;;;;5000222;28;20053;-84
2024/01/13 11:25:28;;;;;;;42.60;25.77;;;4.60;99.90;;;;;;4996468;28;20224;-84
2024/01/13 11:27:54;;;;;;;40.40;23.92;;;4.50;99.90;;;;;;4978507;28;20038;-85
2024/01/13 11:30:30;;;;;;;45.03;24.13;;;4.50;99.90;;;;;;4996571;28;20045;-84
2024/01/13 11:32:56;;;;;;;41.63;23.85;;;4.60;99.90;;;;;;5002632;28;20049;-84
2024/01/13 11:35:22;;;;;;;44.45;23.17;;;4.80;99.90;;;;;;4991532;28;20080;-84
2024/01/13 11:37:54;;;;;;;39.08;22.17;;;4.80;99.90;;;;;;4984727;28;20062;-85
2024/01/13 11:40:20;;;;;;;40.08;22.95;;;4.70;99.90;;;;;;4998482;28;20049;-84
2024/01/13 11:42:46;;;;;;;37.90;21.65;;;4.70;99.90;;;;;;4983562;28;20456;-84
2024/01/13 11:45:13;;;;;;;40.65;21.70;;;4.60;99.90;;;;;;5006064;28;20050;-83
2024/01/13 11:47:39;;;;;;;37.70;20.70;;;4.70;99.90;;;;;;4995465;28;20095;-85
2024/01/13 11:50:35;;;;;;;35.00;20.50;;;4.60;99.90;;;;;;4986017;28;20045;-84
2024/01/13 11:53:01;;;;;;;41.17;21.40;;;4.60;99.90;;;;;;4996981;28;20346;-83
2024/01/13 11:55:27;;;;;;;36.95;18.92;;;4.70;99.90;;;;;;4996543;28;20033;-85
2024/01/13 11:57:53;;;;;;;37.45;19.80;;;4.70;99.90;;;;;;4999273;28;20334;-83
2024/01/13 12:00:19;;;;;;;36.38;19.60;;;4.70;99.90;;;;;;5017652;28;20034;-85
2024/01/13 12:02:45;;;;;;;32.45;18.85;;;4.80;99.90;;;;;;4983632;28;20485;-85
2024/01/13 12:05:11;;;;;;;35.92;19.55;;;4.90;99.90;;;;;;4983565;28;20044;-84
2024/01/13 12:07:38;;;;;;;32.72;17.75;;;4.90;99.90;;;;;;4985549;28;20033;-84
2024/01/13 12:10:08;;;;;;;35.20;18.38;;;4.80;99.90;;;;;;4999719;28;20042;-84
2024/01/13 12:12:34;;;;;;;29.15;17.27;;;4.80;99.90;;;;;;4990741;28;20635;-84
2024/01/13 12:15:03;;;;;;;33.42;17.38;;;4.90;99.90;;;;;;4999283;28;20045;-84
2024/01/13 12:17:29;;;;;;;34.72;17.45;;;4.80;99.90;;;;;;4981126;28;20042;-85
2024/01/13 12:19:54;;;;;;;27.23;14.50;;;4.80;99.90;;;;;;4983509;28;20401;-84
2024/01/13 12:22:23;;;;;;;27.92;16.27;;;4.70;99.90;;;;;;4992086;28;20437;-84
2024/01/13 12:24:49;;;;;;;24.65;15.15;;;4.80;99.90;;;;;;5002067;28;20041;-85
2024/01/13 12:27:18;;;;;;;26.80;15.95;;;4.80;99.90;;;;;;4984819;28;20496;-85
2024/01/13 12:29:54;;;;;;;25.35;15.02;;;4.70;99.90;;;;;;4984351;28;20369;-85
2024/01/13 12:32:19;;;;;;;24.80;14.48;;;4.90;99.90;;;;;;4997539;28;20073;-84
2024/01/13 12:34:45;;;;;;;24.02;13.70;;;4.90;99.90;;;;;;4981380;28;20046;-84
2024/01/13 12:37:12;;;;;;;25.10;13.57;;;5.00;99.90;;;;;;4992072;28;20616;-85
2024/01/13 12:39:38;;;;;;;24.40;12.82;;;5.00;99.90;;;;;;5017054;28;20088;-85
2024/01/13 12:42:05;;;;;;;25.83;12.73;;;4.90;99.90;;;;;;4984938;28;20107;-85
2024/01/13 12:44:34;;;;;;;21.80;12.20;;;5.00;99.90;;;;;;5001147;28;20030;-85
2024/01/13 12:46:59;;;;;;;19.20;11.27;;;4.90;99.90;;;;;;5022233;28;20068;-84